Limerick, Illinois
Current Conditions -  °F | °C
As of 5:15 AM on Wednesday 26 Nov 2014 (Local Time) from KSQI Reporting Station
Clear Clear  
Wind Chill:   Ceiling: Unl
Heat Index: 16°   Visibility: 6mi
Dew Point: 12°   Wind: 7mph
Humidity: 86%   Direction: 100°E
Pressure: 30.1"   Gusts: NA
Location:  41.5481°N, 89.4519°W
Report Text: KSQI 261115Z 10006KT 6SM CLR M09/M11 A3010 RMK AO1
Loading
Personal Weather Stations






























Interactive Weather Map New forecast layout! Learn more

10-Day Weather Forecast

Advertisements
Track Severe Weather on mobile